Time;durP1;ratioP1;P1;durP2;ratioP2;P2;SDS_P1;SDS_P2;PMS_P1;PMS_P2;Temp;Humidity;BMP_temperature;BMP_pressure;BME280_temperature;BME280_humidity;BME280_pressure;Samples;Min_cycle;Max_cycle;Signal;HPM_P1;HPM_P2
2023/06/17 00:14:23;;;;;;;18.65;12.48;;;16.00;94.10;;;;;;6136659;22;19930;-69
2023/06/17 00:16:49;;;;;;;17.15;13.05;;;16.00;94.60;;;;;;4977873;28;20069;-69
2023/06/17 00:29:37;;;;;;;19.83;12.88;;;15.70;95.90;;;;;;6072668;22;20748;-64
2023/06/17 00:32:02;;;;;;;17.40;13.07;;;15.80;96.10;;;;;;5031322;28;20098;-64
2023/06/17 00:34:28;;;;;;;23.13;13.45;;;15.70;96.60;;;;;;5031287;28;20484;-64
2023/06/17 00:36:53;;;;;;;15.73;13.50;;;15.70;96.70;;;;;;5016744;28;20050;-61
2023/06/17 00:39:19;;;;;;;17.52;13.82;;;15.70;96.80;;;;;;5024822;28;20040;-64
2023/06/17 00:41:45;;;;;;;18.65;13.40;;;15.70;96.80;;;;;;5031493;28;20057;-64
2023/06/17 00:44:10;;;;;;;19.15;14.07;;;15.70;96.90;;;;;;5002336;28;20042;-61
2023/06/17 00:46:38;;;;;;;20.40;13.75;;;15.60;97.30;;;;;;5030038;28;20033;-63
2023/06/17 00:49:07;;;;;;;22.48;13.95;;;15.60;97.50;;;;;;5031023;28;20038;-62
2023/06/17 00:51:33;;;;;;;20.88;14.15;;;15.60;97.70;;;;;;5031009;28;20038;-62
2023/06/17 00:54:00;;;;;;;17.67;13.60;;;15.60;97.60;;;;;;5018575;28;20049;-62
2023/06/17 00:56:31;;;;;;;21.48;13.68;;;15.60;97.80;;;;;;5019002;28;20041;-62
2023/06/17 00:58:57;;;;;;;25.67;14.70;;;15.50;98.70;;;;;;5030718;28;20112;-62
2023/06/17 01:01:26;;;;;;;18.25;14.60;;;15.40;98.40;;;;;;5020766;28;20048;-62
2023/06/17 01:03:56;;;;;;;17.67;14.07;;;15.20;98.70;;;;;;5028978;28;20041;-61
2023/06/17 01:06:59;;;;;;;20.60;14.15;;;15.10;99.50;;;;;;5030893;28;20119;-63
2023/06/17 01:09:29;;;;;;;18.90;14.32;;;15.00;99.90;;;;;;5027514;28;20038;-62
2023/06/17 01:11:57;;;;;;;24.17;16.90;;;14.80;99.70;;;;;;5020650;28;20038;-62
2023/06/17 01:14:24;;;;;;;19.80;15.85;;;14.70;99.90;;;;;;5012860;28;20033;-63
2023/06/17 01:16:54;;;;;;;21.20;15.65;;;14.60;99.90;;;;;;5030954;28;20399;-62
2023/06/17 01:19:23;;;;;;;24.25;16.25;;;14.40;99.90;;;;;;5015655;28;20045;-62
2023/06/17 01:21:54;;;;;;;21.75;15.85;;;14.40;99.90;;;;;;5029125;28;20076;-62
2023/06/17 01:24:29;;;;;;;23.60;16.33;;;14.30;99.90;;;;;;5030734;28;20049;-62
2023/06/17 01:26:57;;;;;;;24.73;17.10;;;14.30;99.90;;;;;;5027342;28;20549;-62
2023/06/17 01:29:26;;;;;;;20.65;16.13;;;14.20;99.90;;;;;;5013893;28;20050;-61
2023/06/17 01:31:57;;;;;;;23.67;15.77;;;14.20;99.90;;;;;;5029081;28;20045;-62
2023/06/17 01:34:44;;;;;;;20.60;16.33;;;14.20;99.90;;;;;;5023133;28;20034;-63
2023/06/17 01:37:11;;;;;;;25.17;16.02;;;14.20;99.90;;;;;;5019778;28;20048;-62
2023/06/17 01:39:39;;;;;;;21.35;16.27;;;14.10;99.90;;;;;;5033192;28;20033;-63
2023/06/17 01:42:09;;;;;;;20.92;15.15;;;14.10;99.90;;;;;;5028145;28;20042;-63
2023/06/17 01:44:36;;;;;;;23.10;17.33;;;14.10;99.90;;;;;;5030417;28;20065;-62
2023/06/17 01:47:02;;;;;;;26.20;16.80;;;14.00;99.90;;;;;;5033268;28;20033;-62
2023/06/17 01:49:28;;;;;;;24.10;16.25;;;13.90;99.90;;;;;;5034023;28;20038;-62
2023/06/17 01:51:53;;;;;;;23.25;16.90;;;13.90;99.90;;;;;;5021808;28;20044;-63
2023/06/17 01:54:19;;;;;;;23.23;16.63;;;13.80;99.90;;;;;;5031340;28;20037;-62
2023/06/17 01:56:44;;;;;;;21.08;16.70;;;13.90;99.90;;;;;;5034014;28;20496;-62
2023/06/17 01:59:10;;;;;;;18.98;15.35;;;14.00;99.90;;;;;;5029025;28;20056;-62
2023/06/17 02:01:36;;;;;;;21.10;15.93;;;13.90;99.90;;;;;;5025382;28;20060;-64
2023/06/17 02:04:01;;;;;;;22.55;15.93;;;13.90;99.90;;;;;;5032988;28;20091;-62
2023/06/17 02:06:27;;;;;;;21.35;16.40;;;13.90;99.90;;;;;;5033736;28;20033;-61
2023/06/17 02:08:53;;;;;;;18.90;16.05;;;13.90;99.90;;;;;;5019864;28;20042;-61
2023/06/17 02:11:18;;;;;;;20.17;16.50;;;13.90;99.90;;;;;;5028627;28;20030;-62
2023/06/17 02:13:44;;;;;;;27.35;17.88;;;13.90;99.90;;;;;;5033857;28;20067;-62
2023/06/17 02:16:10;;;;;;;23.88;17.75;;;14.00;99.90;;;;;;5026973;28;20590;-62
2023/06/17 02:18:35;;;;;;;23.25;17.90;;;14.10;99.90;;;;;;5029607;28;20513;-64
2023/06/17 02:21:01;;;;;;;20.85;16.80;;;14.20;99.90;;;;;;5025414;28;20049;-62
2023/06/17 02:23:27;;;;;;;22.63;16.83;;;14.10;99.90;;;;;;5033270;28;20048;-62
2023/06/17 02:25:54;;;;;;;23.52;17.90;;;14.10;99.90;;;;;;5020891;28;20034;-62
2023/06/17 02:28:20;;;;;;;25.08;17.50;;;14.10;99.90;;;;;;5027484;28;20514;-62
2023/06/17 02:30:46;;;;;;;21.65;17.02;;;14.10;99.90;;;;;;5033379;28;20038;-62
2023/06/17 02:33:12;;;;;;;22.90;17.23;;;14.10;99.90;;;;;;5029475;28;20038;-62
2023/06/17 02:35:38;;;;;;;22.52;17.70;;;14.20;99.90;;;;;;5031868;28;20038;-62
2023/06/17 02:38:03;;;;;;;26.05;17.55;;;14.30;99.90;;;;;;5031838;28;20064;-62
2023/06/17 02:40:29;;;;;;;22.88;18.13;;;14.30;99.90;;;;;;5020459;28;20111;-62
2023/06/17 02:42:55;;;;;;;24.35;17.50;;;14.30;99.90;;;;;;5023034;28;20053;-62
2023/06/17 02:45:20;;;;;;;22.05;17.40;;;14.40;99.90;;;;;;5032832;28;20045;-62
2023/06/17 02:47:46;;;;;;;25.45;17.45;;;14.30;99.90;;;;;;5032447;28;20029;-62
2023/06/17 02:50:11;;;;;;;25.85;19.08;;;14.40;99.90;;;;;;5021838;28;20379;-62
2023/06/17 02:52:37;;;;;;;25.25;18.55;;;14.40;99.90;;;;;;5032133;28;20044;-62
2023/06/17 02:55:03;;;;;;;27.80;17.95;;;14.50;99.90;;;;;;5032776;28;20045;-62
2023/06/17 02:57:29;;;;;;;27.75;19.08;;;14.60;99.90;;;;;;5017618;28;20069;-63
2023/06/17 02:59:54;;;;;;;30.88;21.15;;;14.60;99.90;;;;;;5024657;28;20038;-62
2023/06/17 03:02:20;;;;;;;30.58;21.30;;;14.70;99.90;;;;;;5024633;28;20609;-62
2023/06/17 03:04:46;;;;;;;44.28;22.42;;;14.80;99.90;;;;;;5025829;28;20049;-63
2023/06/17 03:07:12;;;;;;;74.65;21.85;;;14.80;99.90;;;;;;5013312;28;20155;-63
2023/06/17 03:09:37;;;;;;;76.90;20.75;;;14.80;99.90;;;;;;5022385;28;20037;-62
2023/06/17 03:12:05;;;;;;;80.18;19.90;;;14.80;99.90;;;;;;5024362;28;20043;-62
2023/06/17 03:14:30;;;;;;;113.05;21.33;;;14.80;99.90;;;;;;5020945;28;20116;-62
2023/06/17 03:16:57;;;;;;;66.97;24.75;;;14.80;99.90;;;;;;5030582;28;20175;-63
2023/06/17 03:19:24;;;;;;;69.93;22.58;;;14.80;99.90;;;;;;5031803;28;20044;-62
2023/06/17 03:21:50;;;;;;;83.38;20.35;;;14.70;99.90;;;;;;5002811;28;20038;-62
2023/06/17 03:24:15;;;;;;;99.47;20.65;;;14.60;99.90;;;;;;5031687;28;20034;-62
2023/06/17 03:26:41;;;;;;;111.82;22.25;;;14.60;99.90;;;;;;5031538;28;20083;-62
2023/06/17 03:29:06;;;;;;;88.47;23.48;;;14.60;99.90;;;;;;5016381;28;20100;-63
2023/06/17 03:31:32;;;;;;;96.75;22.15;;;14.50;99.90;;;;;;5013633;28;20112;-64
2023/06/17 03:33:58;;;;;;;110.30;22.77;;;14.40;99.90;;;;;;5030084;28;20040;-64
2023/06/17 03:36:30;;;;;;;88.25;21.27;;;14.40;99.90;;;;;;5031747;28;20515;-64
2023/06/17 03:38:56;;;;;;;49.08;18.40;;;14.40;99.90;;;;;;5032168;28;20045;-64
2023/06/17 03:41:26;;;;;;;58.10;20.83;;;14.40;99.90;;;;;;5026723;28;20368;-63
2023/06/17 03:43:51;;;;;;;53.22;20.58;;;14.40;99.90;;;;;;5031507;28;20049;-64
2023/06/17 03:46:18;;;;;;;49.03;18.75;;;14.30;99.90;;;;;;5023772;28;20052;-63
2023/06/17 03:48:44;;;;;;;37.35;18.20;;;14.30;99.90;;;;;;5016187;28;20042;-64
2023/06/17 03:51:10;;;;;;;68.25;19.40;;;14.20;99.90;;;;;;5031197;28;20112;-63
2023/06/17 03:53:35;;;;;;;55.85;18.23;;;14.20;99.90;;;;;;5029889;28;20049;-62
2023/06/17 03:56:01;;;;;;;50.92;18.35;;;14.30;99.90;;;;;;5021223;28;20040;-65
2023/06/17 03:58:28;;;;;;;52.60;18.63;;;14.30;99.90;;;;;;5002181;28;20042;-64
2023/06/17 04:00:54;;;;;;;56.75;18.63;;;14.30;99.90;;;;;;5029903;28;20041;-63
2023/06/17 04:03:23;;;;;;;43.50;18.80;;;14.40;99.90;;;;;;5023540;28;20405;-64
2023/06/17 04:05:49;;;;;;;63.13;19.77;;;14.40;99.90;;;;;;5017938;28;20168;-64
2023/06/17 04:08:17;;;;;;;38.10;18.40;;;14.40;99.90;;;;;;5025287;28;20056;-64
2023/06/17 04:10:43;;;;;;;50.53;18.20;;;14.50;99.90;;;;;;5031245;28;20156;-64
2023/06/17 04:13:08;;;;;;;45.33;19.55;;;14.50;99.90;;;;;;5027111;28;20117;-64
2023/06/17 04:15:34;;;;;;;58.78;19.27;;;14.50;99.90;;;;;;5016354;28;20033;-63
2023/06/17 04:18:02;;;;;;;40.13;18.95;;;14.60;99.90;;;;;;5030248;28;20542;-64
2023/06/17 04:20:27;;;;;;;57.97;20.50;;;14.60;99.90;;;;;;5028289;28;20046;-64
2023/06/17 04:22:53;;;;;;;48.58;19.02;;;14.70;99.90;;;;;;5021004;28;20038;-65
2023/06/17 04:25:20;;;;;;;55.13;19.20;;;14.70;99.90;;;;;;5031225;28;20053;-63
2023/06/17 04:27:48;;;;;;;44.20;19.10;;;14.70;99.90;;;;;;5031338;28;20045;-62
2023/06/17 04:30:15;;;;;;;47.33;18.55;;;14.70;99.90;;;;;;5026713;28;20030;-62
2023/06/17 04:32:42;;;;;;;31.08;19.50;;;14.70;99.90;;;;;;5022601;28;20041;-61
2023/06/17 04:35:09;;;;;;;37.97;19.08;;;14.70;99.90;;;;;;5030984;28;20033;-62
2023/06/17 04:37:36;;;;;;;32.63;19.15;;;14.70;99.90;;;;;;5024648;28;20112;-62
2023/06/17 04:40:06;;;;;;;31.73;18.23;;;14.70;99.90;;;;;;5021088;28;20041;-62
2023/06/17 04:42:33;;;;;;;31.97;17.93;;;14.70;99.90;;;;;;5031008;28;20407;-62
2023/06/17 04:45:00;;;;;;;31.80;19.60;;;14.70;99.90;;;;;;5027773;28;20041;-62
2023/06/17 04:47:25;;;;;;;29.60;19.55;;;14.80;99.90;;;;;;5001271;28;20507;-62
2023/06/17 04:49:51;;;;;;;38.50;19.80;;;14.80;99.90;;;;;;5029583;28;20072;-63
2023/06/17 04:52:19;;;;;;;33.92;19.63;;;14.80;99.90;;;;;;5029076;28;20420;-63
2023/06/17 04:54:47;;;;;;;42.85;19.35;;;14.70;99.90;;;;;;5000420;28;20045;-61
2023/06/17 04:57:13;;;;;;;24.38;17.48;;;14.50;99.90;;;;;;5013186;28;20504;-63
2023/06/17 04:59:39;;;;;;;26.60;17.58;;;14.60;99.90;;;;;;4999322;28;20508;-61
2023/06/17 05:02:05;;;;;;;31.83;18.33;;;14.50;99.90;;;;;;5005069;28;20041;-63
2023/06/17 05:04:30;;;;;;;29.92;18.27;;;14.50;99.90;;;;;;4990918;28;20049;-62
2023/06/17 05:06:56;;;;;;;38.45;18.25;;;14.50;99.90;;;;;;5005252;28;20080;-63
2023/06/17 05:09:22;;;;;;;29.13;17.17;;;14.50;99.90;;;;;;5017634;28;20041;-63
2023/06/17 05:11:48;;;;;;;24.83;17.95;;;14.50;99.90;;;;;;5009815;28;20097;-63
2023/06/17 05:14:14;;;;;;;33.90;17.77;;;14.60;99.90;;;;;;5017976;28;20044;-62
2023/06/17 05:16:40;;;;;;;25.48;17.77;;;14.70;99.90;;;;;;5021382;28;20030;-64
2023/06/17 05:19:05;;;;;;;29.92;17.83;;;14.80;99.90;;;;;;5022502;28;20045;-63
2023/06/17 05:21:31;;;;;;;27.02;18.25;;;14.90;99.90;;;;;;5008412;28;20056;-62
2023/06/17 05:23:57;;;;;;;31.63;19.60;;;15.00;99.90;;;;;;5004260;28;20124;-60
2023/06/17 05:26:22;;;;;;;27.38;18.10;;;15.00;99.90;;;;;;5025477;28;20056;-60
2023/06/17 05:28:48;;;;;;;28.80;17.55;;;15.10;99.90;;;;;;5016648;28;20040;-61
2023/06/17 05:31:13;;;;;;;27.55;18.40;;;15.10;99.90;;;;;;5016838;28;20037;-63
2023/06/17 05:33:39;;;;;;;27.70;16.77;;;15.10;99.90;;;;;;5029452;28;20075;-63
2023/06/17 05:36:05;;;;;;;24.08;16.30;;;15.20;99.90;;;;;;5030446;28;20041;-64
2023/06/17 05:38:30;;;;;;;27.00;17.35;;;15.30;99.90;;;;;;5026861;28;20579;-60
2023/06/17 05:40:56;;;;;;;26.60;16.45;;;15.30;99.90;;;;;;5023241;28;20041;-64
2023/06/17 05:43:26;;;;;;;24.65;16.77;;;15.40;99.90;;;;;;5028802;28;20076;-64
2023/06/17 05:45:51;;;;;;;26.77;17.42;;;15.50;99.90;;;;;;5024644;28;20156;-64
2023/06/17 05:48:17;;;;;;;25.63;16.98;;;15.50;99.90;;;;;;5029192;28;20112;-63
2023/06/17 05:50:42;;;;;;;24.30;16.77;;;15.50;99.90;;;;;;5012738;28;20129;-63
2023/06/17 05:53:08;;;;;;;29.30;17.50;;;15.50;99.90;;;;;;5022239;28;20034;-63
2023/06/17 05:55:34;;;;;;;27.80;16.85;;;15.50;99.90;;;;;;5028641;28;20483;-61
2023/06/17 05:58:00;;;;;;;26.25;17.58;;;15.60;99.90;;;;;;5035544;28;20040;-66
2023/06/17 06:00:25;;;;;;;25.88;16.50;;;15.50;99.90;;;;;;5009042;28;20072;-65
2023/06/17 06:02:51;;;;;;;24.00;15.77;;;15.60;99.90;;;;;;5026731;28;20083;-61
2023/06/17 06:05:18;;;;;;;25.70;17.38;;;15.60;99.90;;;;;;5018817;28;20167;-66
2023/06/17 06:07:44;;;;;;;25.15;17.17;;;15.60;99.90;;;;;;5016306;28;20737;-63
2023/06/17 06:10:12;;;;;;;28.45;17.58;;;15.60;99.90;;;;;;5027090;28;20108;-65
2023/06/17 06:12:38;;;;;;;30.23;18.48;;;15.70;99.90;;;;;;5036332;28;20048;-63
2023/06/17 06:15:05;;;;;;;28.20;17.40;;;15.90;99.90;;;;;;5025244;28;20037;-63
2023/06/17 06:17:31;;;;;;;28.58;17.83;;;15.90;99.90;;;;;;5027457;28;20082;-64
2023/06/17 06:19:57;;;;;;;30.30;18.95;;;15.90;99.90;;;;;;5023445;28;20120;-64
2023/06/17 06:22:23;;;;;;;29.60;18.88;;;16.00;99.90;;;;;;5033035;28;20041;-62
2023/06/17 06:24:48;;;;;;;29.15;18.45;;;16.00;99.90;;;;;;5027571;28;20036;-63
2023/06/17 06:27:14;;;;;;;24.17;17.20;;;16.10;99.90;;;;;;5002852;28;20112;-62
2023/06/17 06:29:40;;;;;;;28.00;18.17;;;16.20;99.90;;;;;;5027346;28;20036;-64
2023/06/17 06:32:06;;;;;;;28.02;18.42;;;16.20;99.90;;;;;;4996405;28;20084;-62
2023/06/17 06:34:32;;;;;;;29.65;19.40;;;16.30;99.90;;;;;;5016945;28;20053;-63
2023/06/17 06:36:58;;;;;;;31.08;18.63;;;16.40;99.90;;;;;;5005362;28;20057;-63
2023/06/17 06:39:25;;;;;;;27.73;18.45;;;16.40;99.90;;;;;;5002518;28;20068;-62
2023/06/17 06:41:51;;;;;;;30.15;19.35;;;16.40;99.90;;;;;;5020583;28;20077;-64
2023/06/17 06:44:16;;;;;;;32.80;20.77;;;16.60;99.90;;;;;;5012378;28;20149;-61
2023/06/17 06:46:42;;;;;;;29.27;19.55;;;16.70;99.90;;;;;;5007867;28;20040;-65
2023/06/17 06:49:07;;;;;;;28.15;19.17;;;16.70;99.90;;;;;;5014218;28;20037;-65
2023/06/17 06:51:33;;;;;;;26.80;18.30;;;16.70;99.90;;;;;;5011621;28;20041;-65
2023/06/17 06:53:59;;;;;;;30.05;19.48;;;16.70;99.90;;;;;;5026828;28;20037;-65
2023/06/17 06:56:25;;;;;;;29.00;19.00;;;16.80;99.90;;;;;;5021914;28;20041;-62
2023/06/17 06:58:51;;;;;;;27.65;17.38;;;17.00;99.90;;;;;;5003850;28;20498;-61
2023/06/17 07:01:16;;;;;;;28.67;19.20;;;17.00;99.90;;;;;;5013502;28;20099;-63
2023/06/17 07:03:42;;;;;;;26.58;18.00;;;17.10;99.90;;;;;;5015992;28;20052;-65
2023/06/17 07:06:08;;;;;;;28.23;17.17;;;17.20;99.90;;;;;;5019593;28;20041;-64
2023/06/17 07:08:34;;;;;;;26.25;18.05;;;17.40;99.90;;;;;;5010415;28;20041;-64
2023/06/17 07:11:00;;;;;;;33.13;19.23;;;17.40;99.90;;;;;;5013569;28;20491;-63
2023/06/17 07:13:26;;;;;;;29.52;17.73;;;17.60;99.90;;;;;;5021331;28;20041;-65
2023/06/17 07:15:52;;;;;;;23.83;16.75;;;17.60;99.90;;;;;;5021895;28;20049;-64
2023/06/17 07:18:17;;;;;;;27.95;17.88;;;17.80;99.90;;;;;;5017680;28;20406;-65
2023/06/17 07:20:43;;;;;;;25.38;18.05;;;17.70;99.90;;;;;;5015731;28;20117;-64
2023/06/17 07:23:08;;;;;;;28.90;17.85;;;17.70;99.90;;;;;;5019115;28;20041;-65
2023/06/17 07:25:34;;;;;;;27.25;17.23;;;17.70;99.90;;;;;;4999491;28;20034;-62
2023/06/17 07:28:00;;;;;;;25.08;17.85;;;17.60;99.90;;;;;;5007568;28;20033;-64
2023/06/17 07:30:29;;;;;;;28.75;18.30;;;17.70;99.90;;;;;;5014245;28;20064;-64
2023/06/17 07:32:55;;;;;;;28.80;18.50;;;17.80;99.90;;;;;;5020135;28;20547;-64
2023/06/17 07:35:21;;;;;;;31.98;19.42;;;18.00;99.90;;;;;;5021442;28;20037;-64
2023/06/17 07:37:47;;;;;;;25.08;17.55;;;18.20;99.90;;;;;;5010623;28;20030;-62
2023/06/17 07:40:13;;;;;;;24.85;17.70;;;18.30;99.90;;;;;;5020037;28;20618;-65
2023/06/17 07:42:38;;;;;;;24.88;17.00;;;18.40;99.90;;;;;;5015464;28;20033;-64
2023/06/17 07:45:07;;;;;;;21.80;16.88;;;18.50;99.90;;;;;;5020659;28;20053;-66
2023/06/17 07:47:33;;;;;;;25.23;17.70;;;18.50;99.90;;;;;;5020752;28;20041;-61
2023/06/17 07:49:58;;;;;;;24.25;18.10;;;18.50;99.90;;;;;;5013846;28;20040;-63
2023/06/17 07:52:24;;;;;;;24.38;17.88;;;18.50;99.90;;;;;;5000827;28;20544;-62
2023/06/17 07:54:51;;;;;;;27.15;17.80;;;18.50;99.90;;;;;;5015800;28;20175;-63
2023/06/17 07:57:16;;;;;;;25.75;17.20;;;18.60;99.90;;;;;;5002765;28;20038;-63
2023/06/17 07:59:42;;;;;;;27.30;17.65;;;18.60;99.90;;;;;;5000916;28;20502;-62
2023/06/17 08:02:08;;;;;;;23.50;17.60;;;18.60;99.90;;;;;;5021866;28;20425;-64
2023/06/17 08:04:34;;;;;;;25.70;17.50;;;18.60;99.90;;;;;;5029557;28;20103;-64
2023/06/17 08:07:01;;;;;;;26.27;19.02;;;18.50;99.90;;;;;;5008404;28;20095;-64
2023/06/17 08:09:26;;;;;;;24.90;18.50;;;18.60;99.90;;;;;;5014756;28;20113;-65
2023/06/17 08:11:52;;;;;;;24.67;16.50;;;18.60;99.90;;;;;;5028441;28;20128;-64
2023/06/17 08:14:17;;;;;;;23.85;17.83;;;18.70;99.90;;;;;;5024323;28;20038;-63
2023/06/17 08:16:44;;;;;;;24.52;17.92;;;18.60;99.90;;;;;;5021730;28;20129;-65
2023/06/17 08:19:10;;;;;;;28.48;18.73;;;18.70;99.90;;;;;;5031129;28;20041;-64
2023/06/17 08:21:37;;;;;;;29.10;19.30;;;18.70;99.90;;;;;;5031136;28;20044;-64
2023/06/17 08:24:22;;;;;;;26.42;18.55;;;18.80;99.90;;;;;;5016946;28;20122;-64
2023/06/17 08:26:49;;;;;;;27.55;18.23;;;18.90;99.90;;;;;;5021347;28;20373;-64
2023/06/17 08:29:15;;;;;;;26.25;18.48;;;19.00;99.90;;;;;;5031031;28;20034;-64
2023/06/17 08:31:42;;;;;;;31.55;18.40;;;19.00;99.90;;;;;;5022174;28;20041;-64
2023/06/17 08:34:08;;;;;;;22.98;17.77;;;19.00;99.90;;;;;;5030112;28;20434;-65
2023/06/17 08:36:33;;;;;;;26.08;18.33;;;19.00;99.90;;;;;;5031308;28;20129;-64
2023/06/17 08:39:00;;;;;;;25.35;17.83;;;19.10;99.90;;;;;;5027074;28;20526;-65
2023/06/17 08:41:27;;;;;;;26.75;18.10;;;19.20;99.90;;;;;;5022361;28;20033;-65
2023/06/17 08:43:58;;;;;;;23.02;17.27;;;19.30;99.90;;;;;;5030874;28;20048;-65
2023/06/17 08:46:26;;;;;;;24.52;17.83;;;19.50;99.90;;;;;;5034323;28;20115;-65
2023/06/17 08:48:52;;;;;;;23.83;17.77;;;19.60;99.90;;;;;;5008082;28;20052;-65
2023/06/17 08:51:22;;;;;;;25.77;18.60;;;19.70;99.90;;;;;;5039674;28;20033;-63
2023/06/17 08:53:49;;;;;;;26.90;18.42;;;19.80;99.90;;;;;;5009545;28;20037;-64
2023/06/17 08:56:14;;;;;;;26.10;18.17;;;19.90;99.90;;;;;;5026213;28;20038;-65
2023/06/17 08:58:40;;;;;;;27.40;18.50;;;20.20;99.90;;;;;;5002868;28;20042;-62
2023/06/17 09:01:06;;;;;;;24.20;17.45;;;20.10;99.90;;;;;;5015588;28;20044;-63
2023/06/17 09:03:38;;;;;;;23.38;17.17;;;20.10;99.90;;;;;;5015459;28;20046;-64
2023/06/17 09:06:14;;;;;;;23.30;17.48;;;20.20;99.90;;;;;;5007554;28;20033;-62
2023/06/17 09:08:41;;;;;;;21.17;15.43;;;20.40;99.90;;;;;;5019583;28;20038;-64
2023/06/17 09:11:07;;;;;;;23.08;16.65;;;20.30;99.90;;;;;;5012355;28;20040;-64
2023/06/17 09:13:33;;;;;;;21.55;17.17;;;20.30;99.90;;;;;;5033583;28;20298;-64
2023/06/17 09:16:00;;;;;;;22.92;17.00;;;20.40;99.90;;;;;;5034297;28;20492;-64
2023/06/17 09:18:25;;;;;;;26.00;16.85;;;20.60;99.90;;;;;;5034878;28;20367;-64
2023/06/17 09:20:55;;;;;;;23.20;16.50;;;20.60;99.90;;;;;;5023225;28;20198;-65
2023/06/17 09:23:22;;;;;;;23.90;16.83;;;20.70;99.90;;;;;;5029236;28;20077;-65
2023/06/17 09:25:58;;;;;;;22.20;16.63;;;20.90;99.90;;;;;;5034456;28;20034;-64
2023/06/17 09:28:26;;;;;;;25.95;16.25;;;21.10;99.90;;;;;;5027489;28;20026;-65
2023/06/17 09:30:53;;;;;;;20.83;17.00;;;21.00;99.90;;;;;;5033850;28;20034;-65
2023/06/17 09:33:23;;;;;;;26.27;17.13;;;21.00;99.90;;;;;;5034496;28;20518;-65
2023/06/17 09:35:58;;;;;;;25.90;17.90;;;21.10;99.90;;;;;;5025148;28;20095;-64
2023/06/17 09:38:24;;;;;;;22.25;16.90;;;21.00;99.90;;;;;;5028718;28;20438;-63
2023/06/17 09:40:50;;;;;;;23.60;17.40;;;21.10;99.90;;;;;;5029964;28;20045;-64
2023/06/17 09:43:16;;;;;;;21.35;17.35;;;21.20;99.90;;;;;;5034468;28;20046;-65
2023/06/17 09:45:44;;;;;;;21.35;16.83;;;21.30;99.90;;;;;;5012052;28;20045;-63
2023/06/17 09:48:10;;;;;;;23.85;16.90;;;21.50;99.90;;;;;;5015306;28;20030;-65
2023/06/17 09:50:37;;;;;;;21.77;17.88;;;21.80;99.90;;;;;;5029002;28;20441;-64
2023/06/17 09:53:05;;;;;;;25.48;16.73;;;21.80;99.90;;;;;;5045616;28;20494;-65
2023/06/17 09:55:33;;;;;;;25.40;17.55;;;22.00;99.90;;;;;;5023513;28;20722;-65
2023/06/17 09:58:01;;;;;;;21.73;15.40;;;22.00;99.90;;;;;;5021401;28;20042;-64
2023/06/17 10:00:27;;;;;;;22.23;16.88;;;22.10;99.90;;;;;;5021788;28;20108;-65
2023/06/17 10:02:53;;;;;;;21.58;16.58;;;22.30;99.90;;;;;;5015103;28;20132;-64
2023/06/17 10:05:20;;;;;;;22.40;16.88;;;22.30;99.90;;;;;;5033249;28;20044;-65
2023/06/17 10:07:48;;;;;;;20.67;15.55;;;22.40;99.90;;;;;;5020197;28;20042;-65
2023/06/17 10:10:15;;;;;;;21.27;16.40;;;22.50;99.90;;;;;;5031155;28;20037;-64
2023/06/17 10:12:44;;;;;;;19.70;15.82;;;22.50;99.90;;;;;;5020331;28;20034;-65
2023/06/17 10:15:15;;;;;;;18.23;15.45;;;22.80;99.90;;;;;;5017656;28;20038;-64
2023/06/17 10:17:43;;;;;;;;;;;22.90;99.90;;;;;;5022568;28;20034;-65
2023/06/17 10:20:11;;;;;;;19.23;15.07;;;23.10;98.80;;;;;;5005058;28;20088;-65
2023/06/17 10:22:39;;;;;;;18.52;15.73;;;23.10;99.90;;;;;;5015415;28;20099;-65
2023/06/17 10:25:06;;;;;;;39.08;15.45;;;23.10;99.10;;;;;;5027904;28;20400;-65
2023/06/17 10:27:32;;;;;;;18.70;13.70;;;23.20;99.50;;;;;;4995485;28;20053;-62
2023/06/17 10:29:58;;;;;;;18.30;14.13;;;23.20;99.10;;;;;;5019523;28;20135;-65
2023/06/17 10:32:24;;;;;;;21.05;14.27;;;23.30;98.60;;;;;;5027632;28;20048;-65
2023/06/17 10:35:10;;;;;;;20.52;15.85;;;23.20;98.50;;;;;;5033317;28;20041;-64
2023/06/17 10:37:40;;;;;;;20.98;15.30;;;23.30;98.00;;;;;;5030945;28;20449;-66
2023/06/17 10:40:26;;;;;;;16.70;14.32;;;23.40;99.30;;;;;;5015645;28;20038;-65
2023/06/17 10:43:03;;;;;;;21.25;16.67;;;23.60;97.30;;;;;;5020324;28;20121;-65
2023/06/17 10:45:46;;;;;;;22.45;15.00;;;23.70;97.50;;;;;;5008267;28;20121;-64
2023/06/17 10:48:22;;;;;;;21.55;14.13;;;23.90;97.90;;;;;;5014729;28;20044;-65
2023/06/17 10:51:02;;;;;;;20.27;13.23;;;23.90;97.40;;;;;;5026600;28;20041;-65
2023/06/17 10:53:35;;;;;;;18.38;14.45;;;24.00;97.80;;;;;;5024607;28;20044;-65
2023/06/17 10:56:02;;;;;;;18.75;14.32;;;24.10;97.40;;;;;;5009990;28;20647;-62
2023/06/17 10:58:31;;;;;;;20.85;14.02;;;24.20;97.20;;;;;;5023362;28;20033;-65
2023/06/17 11:01:08;;;;;;;23.35;14.15;;;24.30;97.10;;;;;;5018471;28;20080;-64
2023/06/17 11:03:34;;;;;;;19.08;14.07;;;24.50;97.40;;;;;;5014154;28;20511;-62
2023/06/17 11:06:04;;;;;;;17.17;12.20;;;24.60;97.00;;;;;;5015340;28;20037;-64
2023/06/17 11:08:35;;;;;;;18.17;12.30;;;24.70;96.20;;;;;;5008703;28;20055;-64
2023/06/17 11:11:15;;;;;;;21.23;12.98;;;24.70;96.00;;;;;;5019424;28;20033;-62
2023/06/17 11:13:42;;;;;;;17.33;13.70;;;24.80;95.90;;;;;;5021909;28;20045;-64
2023/06/17 11:16:09;;;;;;;17.85;12.75;;;24.70;95.60;;;;;;4992078;28;20037;-64
2023/06/17 11:18:40;;;;;;;17.98;12.75;;;24.80;95.90;;;;;;4993709;28;20116;-64
2023/06/17 11:21:07;;;;;;;14.88;11.30;;;24.90;94.40;;;;;;5014120;28;20029;-64
2023/06/17 11:23:35;;;;;;;17.25;12.05;;;25.10;95.10;;;;;;5018951;28;20049;-64
2023/06/17 11:26:02;;;;;;;15.55;10.95;;;25.20;94.90;;;;;;5030987;28;20037;-65
2023/06/17 11:28:30;;;;;;;18.05;11.75;;;25.30;94.90;;;;;;5030720;28;20522;-63
2023/06/17 11:30:56;;;;;;;14.93;12.00;;;25.30;94.30;;;;;;5008441;28;20589;-63
2023/06/17 11:33:22;;;;;;;15.52;11.30;;;25.60;94.60;;;;;;5007907;28;20077;-65
2023/06/17 11:35:49;;;;;;;12.57;10.05;;;25.90;94.40;;;;;;5004738;28;20140;-66
2023/06/17 11:38:16;;;;;;;13.73;9.68;;;26.00;93.70;;;;;;5024855;28;20033;-66
2023/06/17 11:40:42;;;;;;;13.70;9.70;;;26.00;93.20;;;;;;5030147;28;20065;-65
2023/06/17 11:43:09;;;;;;;15.75;10.70;;;25.90;93.00;;;;;;5017669;28;20106;-65
2023/06/17 11:45:35;;;;;;;15.85;9.95;;;25.90;92.80;;;;;;5011037;28;20034;-65
2023/06/17 11:48:05;;;;;;;10.90;9.07;;;25.90;92.20;;;;;;5029593;28;20041;-65
2023/06/17 11:50:30;;;;;;;11.35;9.10;;;26.00;91.50;;;;;;5010032;28;20741;-66
2023/06/17 11:52:58;;;;;;;12.93;7.50;;;26.10;91.70;;;;;;5008954;28;20073;-66
2023/06/17 11:55:32;;;;;;;14.38;8.70;;;26.40;90.70;;;;;;5024625;28;20045;-65
2023/06/17 11:58:00;;;;;;;10.77;8.15;;;26.60;88.90;;;;;;5031207;28;20175;-65
2023/06/17 12:00:25;;;;;;;12.05;9.15;;;26.80;90.00;;;;;;5031672;28;20037;-65
2023/06/17 12:02:54;;;;;;;16.23;9.50;;;26.80;90.00;;;;;;5021970;28;20488;-65
2023/06/17 12:05:19;;;;;;;11.65;8.15;;;26.70;90.10;;;;;;5031397;28;20044;-65
2023/06/17 12:07:46;;;;;;;11.25;8.82;;;26.60;88.90;;;;;;5026734;28;20037;-65
2023/06/17 12:10:12;;;;;;;9.82;8.23;;;26.80;89.60;;;;;;5021930;28;20499;-64
2023/06/17 12:12:38;;;;;;;9.60;7.80;;;26.80;88.70;;;;;;5028387;28;20036;-65
2023/06/17 12:15:06;;;;;;;11.00;7.47;;;27.00;86.70;;;;;;5022530;28;20045;-65
2023/06/17 12:17:42;;;;;;;10.07;7.43;;;27.10;84.00;;;;;;5031174;28;20037;-66
2023/06/17 12:20:18;;;;;;;9.02;7.03;;;27.20;78.60;;;;;;5030891;28;20038;-65
2023/06/17 12:22:45;;;;;;;11.00;8.05;;;27.20;77.80;;;;;;5013810;28;20108;-65
2023/06/17 12:25:11;;;;;;;9.45;8.15;;;27.40;80.00;;;;;;5020497;28;20037;-65
2023/06/17 12:27:37;;;;;;;12.45;8.48;;;27.50;79.60;;;;;;5022232;28;20056;-64
2023/06/17 12:30:04;;;;;;;11.73;8.07;;;27.60;78.50;;;;;;5018175;28;20519;-64
2023/06/17 12:32:30;;;;;;;11.43;7.70;;;27.50;77.80;;;;;;5013363;28;20043;-64
2023/06/17 12:34:57;;;;;;;11.57;7.43;;;27.80;78.20;;;;;;5031290;28;20060;-64
2023/06/17 12:37:26;;;;;;;10.35;7.70;;;27.90;77.10;;;;;;5015777;28;20484;-64
2023/06/17 12:39:53;;;;;;;9.07;7.93;;;27.90;74.60;;;;;;5028933;28;20439;-65
2023/06/17 12:42:19;;;;;;;10.82;7.88;;;28.00;73.80;;;;;;5022510;28;20041;-64
2023/06/17 12:47:23;;;;;;;11.73;7.60;;;28.20;72.30;;;;;;5297522;22;20038;-70
2023/06/17 12:49:49;;;;;;;8.20;7.10;;;28.40;71.20;;;;;;5013392;28;20483;-70
2023/06/17 12:52:15;;;;;;;8.20;6.88;;;28.40;69.20;;;;;;5009566;28;20746;-70
2023/06/17 12:57:16;;;;;;;9.98;7.28;;;28.50;69.20;;;;;;5140201;22;20045;-70